createdAt,value
2017-07-11T00:00:04.327Z,85.94
2017-07-11T00:00:44.877Z,86.04
2017-07-11T00:01:25.364Z,85.37
2017-07-11T00:02:05.886Z,86.04
2017-07-11T00:02:46.342Z,86.08
2017-07-11T00:03:26.842Z,85.46
2017-07-11T00:04:07.351Z,85.17
2017-07-11T00:04:47.889Z,85.56
2017-07-11T00:05:28.341Z,85.27
2017-07-11T00:06:08.873Z,84.98
2017-07-11T00:06:49.354Z,84.69
2017-07-11T00:07:29.846Z,84.79
2017-07-11T00:08:10.426Z,84.89
2017-07-11T00:08:50.893Z,85.56
2017-07-11T00:09:31.372Z,85.94
2017-07-11T00:10:11.884Z,86.14
2017-07-11T00:10:52.406Z,85.85
2017-07-11T00:11:32.886Z,85.5
2017-07-11T00:12:13.407Z,85.17
2017-07-11T00:12:53.897Z,85.17
2017-07-11T00:13:34.407Z,85.46
2017-07-11T00:14:14.884Z,85.17
2017-07-11T00:14:55.345Z,85.46
2017-07-11T00:15:35.893Z,86.24
2017-07-11T00:16:16.379Z,85.85
2017-07-11T00:16:56.864Z,85.66
2017-07-11T00:17:37.315Z,85.56
2017-07-11T00:18:17.829Z,85.37
2017-07-11T00:18:58.348Z,85.94
2017-07-11T00:19:38.885Z,85.66
2017-07-11T00:20:20.260Z,85.94
2017-07-11T00:21:00.781Z,85.56
2017-07-11T00:21:41.311Z,85.94
2017-07-11T00:22:21.838Z,85.85
2017-07-11T00:23:02.311Z,85.37
2017-07-11T00:23:42.840Z,85.7
2017-07-11T00:24:23.276Z,85.31
2017-07-11T00:25:03.804Z,85.66
2017-07-11T00:25:48.700Z,85.8
2017-07-11T00:26:30.941Z,85.12
2017-07-11T00:27:11.471Z,85.37
2017-07-11T00:27:51.913Z,85.75
2017-07-11T00:28:32.413Z,85.94
2017-07-11T00:29:12.914Z,86.24
2017-07-11T00:29:53.407Z,86.33
2017-07-11T00:30:33.992Z,86.29
2017-07-11T00:31:14.492Z,86.87
2017-07-11T00:31:54.939Z,86.91
2017-07-11T00:32:35.470Z,86.43
2017-07-11T00:33:15.930Z,86.72
2017-07-11T00:33:56.404Z,86.82
2017-07-11T00:34:36.904Z,86.52
2017-07-11T00:35:17.425Z,85.94
2017-07-11T00:35:57.882Z,85.08
2017-07-11T00:36:38.373Z,85.85
2017-07-11T00:37:18.905Z,85.75
2017-07-11T00:37:59.496Z,85.56
2017-07-11T00:38:40.026Z,84.98
2017-07-11T00:39:20.512Z,84.98
2017-07-11T00:40:00.992Z,85.17
2017-07-11T00:40:41.486Z,86.04
2017-07-11T00:41:22.017Z,85.37
2017-07-11T00:42:02.479Z,85.66
2017-07-11T00:42:42.970Z,85.27
2017-07-11T00:43:23.509Z,85.27
2017-07-11T00:44:04.019Z,84.98
2017-07-11T00:44:44.456Z,84.94
2017-07-11T00:45:24.979Z,85.33
2017-07-11T00:46:05.490Z,85.42
2017-07-11T00:46:46.098Z,85.52
2017-07-11T00:47:26.571Z,85.56
2017-07-11T00:48:07.030Z,85.33
2017-07-11T00:48:47.530Z,85.52
2017-07-11T00:49:28.064Z,85.27
2017-07-11T00:50:08.581Z,85.27
2017-07-11T00:50:49.054Z,84.79
2017-07-11T00:51:29.615Z,85.37
2017-07-11T00:52:10.075Z,84.98
2017-07-11T00:52:50.596Z,84.98
2017-07-11T00:53:31.086Z,84.89
2017-07-11T00:54:11.582Z,84.69
2017-07-11T00:54:52.089Z,84.89
2017-07-11T00:55:32.594Z,84.98
2017-07-11T00:56:13.098Z,84.5
2017-07-11T00:56:53.613Z,84.21
2017-07-11T00:57:34.084Z,84.5
2017-07-11T00:58:14.594Z,84.27
2017-07-11T01:00:12.799Z,85.61
2017-07-11T01:02:26.058Z,86
2017-07-11T01:03:06.571Z,85.61
2017-07-11T01:03:47.069Z,85.81
2017-07-11T01:04:27.601Z,86.1
2017-07-11T01:05:08.081Z,86.48
2017-07-11T01:05:48.585Z,86.58
2017-07-11T01:06:29.100Z,86.77
2017-07-11T01:07:09.671Z,86.39
2017-07-11T01:07:50.129Z,86.1
2017-07-11T01:08:30.660Z,86.19
2017-07-11T01:09:11.163Z,86.68
2017-07-11T01:09:51.686Z,86.77
2017-07-11T01:10:32.224Z,85.91
2017-07-11T01:11:12.706Z,86.58
2017-07-11T01:11:53.225Z,86.87
2017-07-11T01:12:33.740Z,86.77
2017-07-11T01:13:14.251Z,86.96
2017-07-11T01:13:54.730Z,86.68
2017-07-11T01:14:35.312Z,87.4
2017-07-11T01:15:15.790Z,87.7
2017-07-11T01:15:56.287Z,87.88
2017-07-11T01:16:36.806Z,88.08
2017-07-11T01:17:17.310Z,88.65
2017-07-11T01:17:57.823Z,88.27
2017-07-11T01:18:38.345Z,87.79
2017-07-11T01:19:18.839Z,87.88
2017-07-11T01:19:59.360Z,88.27
2017-07-11T01:21:52.471Z,88.17
2017-07-11T01:22:32.992Z,88.27
2017-07-11T01:23:13.518Z,88.46
2017-07-11T01:23:54.035Z,87.79
2017-07-11T01:24:34.664Z,88.46
2017-07-11T01:25:15.176Z,88.37
2017-07-11T01:25:55.697Z,87.88
2017-07-11T01:26:36.164Z,88.17
2017-07-11T01:27:16.800Z,88.46
2017-07-11T01:27:57.325Z,88.51
2017-07-11T01:28:37.835Z,87.88
2017-07-11T01:29:18.340Z,88.85
2017-07-11T01:29:58.841Z,88.65
2017-07-11T01:30:39.394Z,89.14
2017-07-11T01:31:19.864Z,88.85
2017-07-11T01:32:00.363Z,88.95
2017-07-11T01:32:40.855Z,88.7
2017-07-11T01:33:21.384Z,88.27
2017-07-11T01:34:01.934Z,89.04
2017-07-11T01:34:42.381Z,88.85
2017-07-11T01:35:22.893Z,88.95
2017-07-11T01:36:03.410Z,89.23
2017-07-11T01:36:43.893Z,89.23
2017-07-11T01:37:24.423Z,88.75
2017-07-11T01:38:04.922Z,88.56
2017-07-11T01:38:45.428Z,88.65
2017-07-11T01:39:25.931Z,88.56
2017-07-11T01:40:06.444Z,89.23
2017-07-11T01:40:46.933Z,88.65
2017-07-11T01:41:28.303Z,88.75
2017-07-11T01:42:08.814Z,89.62
2017-07-11T01:42:49.316Z,89.14
2017-07-11T01:43:29.827Z,89.23
2017-07-11T01:44:10.317Z,88.56
2017-07-11T01:44:50.841Z,89.14
2017-07-11T01:45:31.366Z,88.75
2017-07-11T01:46:11.864Z,89.23
2017-07-11T01:46:52.414Z,89.53
2017-07-11T01:47:32.883Z,89.04
2017-07-11T01:48:13.394Z,88.65
2017-07-11T01:48:53.927Z,89.04
2017-07-11T01:49:34.420Z,88.85
2017-07-11T01:50:14.963Z,89.04
2017-07-11T01:50:55.433Z,88.46
2017-07-11T01:51:35.952Z,89.14
2017-07-11T01:52:16.491Z,89.04
2017-07-11T01:52:56.964Z,89.33
2017-07-11T01:53:37.471Z,88.75
2017-07-11T01:54:17.969Z,89.23
2017-07-11T01:54:58.501Z,88.46
2017-07-11T01:55:38.997Z,89.04
2017-07-11T01:56:19.488Z,89.53
2017-07-11T01:57:00.000Z,89.14
2017-07-11T01:57:40.512Z,89.53
2017-07-11T01:58:21.006Z,89.72
2017-07-11T01:59:01.523Z,89.72
2017-07-11T01:59:41.999Z,89.53
2017-07-11T02:00:22.519Z,89.53
2017-07-11T02:01:03.025Z,88.75
2017-07-11T02:01:43.633Z,88.75
2017-07-11T02:02:24.103Z,88.75
2017-07-11T02:03:04.661Z,89.14
2017-07-11T02:03:45.116Z,88.37
2017-07-11T02:04:25.620Z,89.14
2017-07-11T02:05:06.118Z,88.85
2017-07-11T02:05:46.633Z,88.85
2017-07-11T02:06:27.122Z,89.14
2017-07-11T02:07:07.666Z,88.46
2017-07-11T02:07:48.121Z,88.95
2017-07-11T02:08:28.624Z,89.14
2017-07-11T02:09:09.148Z,88.65
2017-07-11T02:09:49.657Z,88.85
2017-07-11T02:10:30.132Z,88.27
2017-07-11T02:11:10.635Z,88.27
2017-07-11T02:11:51.167Z,88.56
2017-07-11T02:12:31.672Z,88.6
2017-07-11T02:13:12.172Z,88.75
2017-07-11T02:13:52.669Z,87.93
2017-07-11T02:14:33.210Z,87.79
2017-07-11T02:15:13.682Z,88.27
2017-07-11T02:15:54.214Z,87.88
2017-07-11T02:16:34.716Z,88.17
2017-07-11T02:17:15.218Z,88.31
2017-07-11T02:17:55.724Z,87.5
2017-07-11T02:18:36.234Z,87.88
2017-07-11T02:19:16.750Z,87.79
2017-07-11T02:19:57.267Z,88.41
2017-07-11T02:20:37.756Z,88.12
2017-07-11T02:21:18.279Z,87.5
2017-07-11T02:21:58.768Z,87.79
2017-07-11T02:22:39.343Z,88.37
2017-07-11T02:23:19.859Z,88.37
2017-07-11T02:24:00.353Z,87.93
2017-07-11T02:24:40.876Z,87.64
2017-07-11T02:25:21.391Z,87.83
2017-07-11T02:26:01.914Z,87.83
2017-07-11T02:26:42.429Z,87.74
2017-07-11T02:27:22.902Z,87.74
2017-07-11T02:28:03.420Z,87.64
2017-07-11T02:28:43.933Z,87.54
2017-07-11T02:29:24.447Z,87.54
2017-07-11T02:30:04.974Z,87.7
2017-07-11T02:30:45.495Z,87.7
2017-07-11T02:31:26.000Z,87.83
2017-07-11T02:32:06.515Z,87.64
2017-07-11T02:32:47.022Z,87.54
2017-07-11T02:33:27.551Z,87.74
2017-07-11T02:34:08.088Z,87.54
2017-07-11T02:34:48.584Z,88.46
2017-07-11T02:35:29.116Z,87.98
2017-07-11T02:36:09.618Z,87.83
2017-07-11T02:36:50.134Z,88.08
2017-07-11T02:37:30.657Z,88.56
2017-07-11T02:38:11.181Z,88.37
2017-07-11T02:38:51.691Z,88.37
2017-07-11T02:39:32.223Z,88.08
2017-07-11T02:40:12.705Z,88.65
2017-07-11T02:40:53.208Z,88.56
2017-07-11T02:41:33.719Z,88.17
2017-07-11T02:42:14.223Z,88.46
2017-07-11T02:42:54.749Z,88.65
2017-07-11T02:43:35.264Z,88.75
2017-07-11T02:44:15.770Z,88.85
2017-07-11T02:44:56.269Z,88.27
2017-07-11T02:45:36.763Z,88.37
2017-07-11T02:46:17.295Z,88.37
2017-07-11T02:46:57.812Z,88.85
2017-07-11T02:47:38.327Z,88.37
2017-07-11T02:48:18.844Z,88.17
2017-07-11T02:48:59.363Z,88.75
2017-07-11T02:49:39.881Z,89.04
2017-07-11T02:50:20.390Z,89.67
2017-07-11T02:51:00.919Z,89.86
2017-07-11T02:51:41.433Z,90
2017-07-11T02:52:21.957Z,89.91
2017-07-11T02:53:02.452Z,89.04
2017-07-11T02:53:42.960Z,89.33
2017-07-11T02:54:23.474Z,89.53
2017-07-11T02:55:03.958Z,89.53
2017-07-11T02:55:44.471Z,90.2
2017-07-11T02:56:25.008Z,89.91
2017-07-11T02:57:05.539Z,90
2017-07-11T02:57:46.057Z,88.85
2017-07-11T02:58:26.569Z,89.23
2017-07-11T02:59:07.053Z,89.33
2017-07-11T02:59:47.550Z,89.14
2017-07-11T03:00:28.046Z,88.95
2017-07-11T03:01:08.551Z,88.85
2017-07-11T03:01:49.062Z,88.85
2017-07-11T03:02:29.540Z,89.23
2017-07-11T03:03:10.070Z,89.53
2017-07-11T03:03:50.535Z,89.86
2017-07-11T03:04:31.065Z,90.06
2017-07-11T03:05:11.539Z,90.06
2017-07-11T03:05:52.046Z,89.77
2017-07-11T03:06:32.563Z,90.34
2017-07-11T03:07:13.076Z,90.06
2017-07-11T03:07:53.597Z,89.96
2017-07-11T03:08:34.124Z,89.96
2017-07-11T03:09:14.650Z,90.16
2017-07-11T03:09:55.135Z,90.16
2017-07-11T03:10:35.659Z,90.83
2017-07-11T03:11:16.180Z,91.41
2017-07-11T03:11:56.689Z,91.02
2017-07-11T03:12:37.207Z,90.92
2017-07-11T03:13:17.758Z,91.6
2017-07-11T03:13:58.222Z,91.6
2017-07-11T03:14:38.725Z,91.99
2017-07-11T03:15:19.248Z,92.27
2017-07-11T03:15:59.943Z,92.8
2017-07-11T03:16:40.438Z,92.56
2017-07-11T03:17:20.883Z,92.37
2017-07-11T03:18:01.393Z,91.69
2017-07-11T03:18:41.948Z,91.89
2017-07-11T03:19:22.465Z,91.41
2017-07-11T03:20:03.056Z,91.69
2017-07-11T03:20:43.554Z,91.12
2017-07-11T03:21:24.052Z,91.31
2017-07-11T03:22:04.524Z,91.41
2017-07-11T03:22:45.044Z,91.41
2017-07-11T03:23:25.572Z,91.02
2017-07-11T03:24:06.061Z,91.21
2017-07-11T03:24:46.594Z,91.31
2017-07-11T03:25:27.164Z,91.02
2017-07-11T03:26:07.679Z,91.12
2017-07-11T03:26:48.178Z,90.83
2017-07-11T03:27:28.679Z,91.12
2017-07-11T03:28:09.169Z,91.21
2017-07-11T03:28:49.680Z,90.25
2017-07-11T03:29:30.180Z,90.73
2017-07-11T03:30:10.711Z,90.88
2017-07-11T03:30:51.206Z,90.06
2017-07-11T03:33:10.099Z,90.06
2017-07-11T03:33:50.613Z,89.96
2017-07-11T03:34:31.129Z,89.81
2017-07-11T03:35:11.643Z,90.06
2017-07-11T03:35:52.161Z,89.67
2017-07-11T03:36:32.689Z,90.16
2017-07-11T03:37:13.222Z,90.73
2017-07-11T03:37:53.731Z,90.34
2017-07-11T03:38:34.259Z,90.54
2017-07-11T03:39:14.755Z,90.25
2017-07-11T03:39:55.265Z,90.25
2017-07-11T03:40:35.790Z,90.25
2017-07-11T03:41:16.306Z,90.06
2017-07-11T03:41:56.834Z,89.58
2017-07-11T03:42:37.350Z,89.62
2017-07-11T03:43:17.843Z,89.53
2017-07-11T03:43:58.370Z,89.19
2017-07-11T03:44:38.886Z,89.04
2017-07-11T03:45:19.354Z,89.29
2017-07-11T03:45:59.878Z,89.39
2017-07-11T03:46:40.380Z,89.77
2017-07-11T03:47:20.898Z,89.86
2017-07-11T03:48:01.396Z,89.77
2017-07-11T03:48:41.911Z,90.25
2017-07-11T03:49:22.409Z,90.92
2017-07-11T03:50:02.907Z,90.44
2017-07-11T03:50:43.474Z,90.64
2017-07-11T03:51:23.983Z,90.16
2017-07-11T03:52:04.502Z,89.86
2017-07-11T03:52:45.001Z,89.86
2017-07-11T03:53:25.528Z,90.34
2017-07-11T03:54:06.029Z,90.06
2017-07-11T03:54:46.551Z,90.44
2017-07-11T03:55:27.076Z,90.34
2017-07-11T03:56:07.585Z,90.44
2017-07-11T03:56:48.094Z,90.44
2017-07-11T03:57:28.623Z,90.16
2017-07-11T03:58:09.136Z,89.39
2017-07-11T03:58:49.719Z,89.77
2017-07-11T03:59:30.194Z,89.72
2017-07-11T04:00:10.673Z,89.33
2017-07-11T04:00:51.198Z,89.53
2017-07-11T04:01:31.698Z,90
2017-07-11T04:02:12.250Z,89.48
2017-07-11T04:02:52.721Z,89.96
2017-07-11T04:03:33.212Z,90.34
2017-07-11T04:04:13.684Z,90.92
2017-07-11T04:04:54.187Z,91.6
2017-07-11T04:05:34.664Z,91.69
2017-07-11T04:06:15.189Z,92.08
2017-07-11T04:06:55.702Z,90.97
2017-07-11T04:07:36.222Z,91.6
2017-07-11T04:08:16.764Z,91.79
2017-07-11T04:08:57.286Z,91.21
2017-07-11T04:09:37.779Z,90.64
2017-07-11T04:10:18.291Z,90.64
2017-07-11T04:10:58.800Z,91.02
2017-07-11T04:11:39.361Z,90.73
2017-07-11T04:12:19.876Z,89.96
2017-07-11T04:13:00.394Z,89.86
2017-07-11T04:13:40.906Z,90.34
2017-07-11T04:14:21.417Z,90.25
2017-07-11T04:15:01.976Z,90.34
2017-07-11T04:15:42.454Z,90.34
2017-07-11T04:16:22.962Z,89.91
2017-07-11T04:17:03.495Z,90.1
2017-07-11T04:17:43.997Z,89.81
2017-07-11T04:18:24.557Z,88.85
2017-07-11T04:19:05.022Z,89.72
2017-07-11T04:19:45.542Z,89
2017-07-11T04:20:26.058Z,89.04
2017-07-11T04:21:06.572Z,89.43
2017-07-11T04:21:47.092Z,89.33
2017-07-11T04:22:27.594Z,89.53
2017-07-11T04:23:08.081Z,89.33
2017-07-11T04:23:48.618Z,89.14
2017-07-11T04:24:29.111Z,88.7
2017-07-11T04:25:09.674Z,88.41
2017-07-11T04:25:50.190Z,89.18
2017-07-11T04:26:30.732Z,88.79
2017-07-11T04:27:11.196Z,88.41
2017-07-11T04:27:51.714Z,88.22
2017-07-11T04:28:32.239Z,88.89
2017-07-11T04:29:12.761Z,88.79
2017-07-11T04:29:53.268Z,88.7
2017-07-11T04:30:33.778Z,88.89
2017-07-11T04:31:14.299Z,88.12
2017-07-11T04:31:54.845Z,87.6
2017-07-11T04:32:35.385Z,88.37
2017-07-11T04:33:15.872Z,88.46
2017-07-11T04:33:56.395Z,88.65
2017-07-11T04:34:36.898Z,89.14
2017-07-11T04:35:17.440Z,89.33
2017-07-11T04:35:57.949Z,89.04
2017-07-11T04:36:38.466Z,88.65
2017-07-11T04:37:18.987Z,89.04
2017-07-11T04:37:59.509Z,88.85
2017-07-11T04:38:40.023Z,88.85
2017-07-11T04:39:20.510Z,88.65
2017-07-11T04:40:01.014Z,89.14
2017-07-11T04:40:41.547Z,88.65
2017-07-11T04:41:22.026Z,89.33
2017-07-11T04:42:02.523Z,89.58
2017-07-11T04:42:43.040Z,89.77
2017-07-11T04:43:23.539Z,89.77
2017-07-11T04:44:04.007Z,89.86
2017-07-11T04:44:44.510Z,89.29
2017-07-11T04:45:25.037Z,89.86
2017-07-11T04:46:05.551Z,89.48
2017-07-11T04:46:46.038Z,89.48
2017-07-11T04:47:26.552Z,89.96
2017-07-11T04:48:07.054Z,90.3
2017-07-11T04:48:47.527Z,89.91
2017-07-11T04:49:28.001Z,89.77
2017-07-11T04:50:08.527Z,90.16
2017-07-11T04:50:49.005Z,89.77
2017-07-11T04:51:29.501Z,90.16
2017-07-11T04:52:10.067Z,89.96
2017-07-11T04:52:50.593Z,89.77
2017-07-11T04:53:31.084Z,90.73
2017-07-11T04:54:11.620Z,90.34
2017-07-11T04:54:52.105Z,90.44
2017-07-11T04:55:32.615Z,90.16
2017-07-11T04:56:13.141Z,89.86
2017-07-11T04:56:53.601Z,89.48
2017-07-11T04:57:34.081Z,89.58
2017-07-11T04:58:14.634Z,89.77
2017-07-11T04:58:55.097Z,89.77
2017-07-11T04:59:35.604Z,90.06
2017-07-11T05:00:16.075Z,90.25
2017-07-11T05:00:56.607Z,90.1
2017-07-11T05:01:37.088Z,89.77
2017-07-11T05:02:17.565Z,90.16
2017-07-11T05:02:58.133Z,90.25
2017-07-11T05:03:38.599Z,89.86
2017-07-11T05:04:19.125Z,89.67
2017-07-11T05:04:59.638Z,89.77
2017-07-11T05:05:40.150Z,90.25
2017-07-11T05:06:20.679Z,90.06
2017-07-11T05:07:01.193Z,89.86
2017-07-11T05:07:41.737Z,89.48
2017-07-11T05:08:22.261Z,89.58
2017-07-11T05:09:02.785Z,90.16
2017-07-11T05:09:43.272Z,89.86
2017-07-11T05:10:23.783Z,89.58
2017-07-11T05:11:04.304Z,89.48
2017-07-11T05:11:44.863Z,89.77
2017-07-11T05:12:25.345Z,90.25
2017-07-11T05:13:05.855Z,90.34
2017-07-11T05:13:46.383Z,90.25
2017-07-11T05:14:26.904Z,90.44
2017-07-11T05:15:07.414Z,89.77
2017-07-11T05:15:47.963Z,89.86
2017-07-11T05:16:28.447Z,90.25
2017-07-11T05:17:08.908Z,89.48
2017-07-11T05:17:49.409Z,89.72
2017-07-11T05:18:29.887Z,89.09
2017-07-11T05:19:10.376Z,89.09
2017-07-11T05:19:50.903Z,92.8
2017-07-11T05:20:31.426Z,96.37
2017-07-11T05:21:11.945Z,99.99
2017-07-11T05:21:52.468Z,97.52
2017-07-11T05:22:32.996Z,95.4
2017-07-11T05:23:13.613Z,99.93
2017-07-11T05:23:54.137Z,99.99
2017-07-11T05:24:34.665Z,99.79
2017-07-11T05:25:15.226Z,99.99
2017-07-11T05:25:55.707Z,98.25
2017-07-11T05:26:36.207Z,97.24
2017-07-11T05:27:16.774Z,95.01
2017-07-11T05:27:57.299Z,94.92
2017-07-11T05:28:37.822Z,90.58
2017-07-11T05:29:18.378Z,95.5
2017-07-11T05:29:58.865Z,93.66
2017-07-11T05:30:39.388Z,96.27
2017-07-11T05:31:19.907Z,92.89
2017-07-11T05:32:00.440Z,96.22
2017-07-11T05:32:40.959Z,98.44
2017-07-11T05:33:21.489Z,97.77
2017-07-11T05:34:02.019Z,96.8
2017-07-11T05:34:42.684Z,94.24
2017-07-11T05:35:23.180Z,90.95
2017-07-11T05:36:03.659Z,89.99
2017-07-11T05:36:44.176Z,89.61
2017-07-11T05:37:24.684Z,88.45
2017-07-11T05:38:05.212Z,87.58
2017-07-11T05:38:45.721Z,85.94
2017-07-11T05:39:27.213Z,87.87
2017-07-11T05:40:08.569Z,87.29
2017-07-11T05:40:51.208Z,87.58
2017-07-11T05:41:30.987Z,88.45
2017-07-11T05:42:11.513Z,88.93
2017-07-11T05:42:52.035Z,86.71
2017-07-11T05:43:32.556Z,84.74
2017-07-11T05:44:13.780Z,89.31
2017-07-11T05:44:55.003Z,89.7
2017-07-11T05:45:35.528Z,89.31
2017-07-11T05:46:16.612Z,88.64
2017-07-11T05:46:57.326Z,87.38
2017-07-11T05:47:38.213Z,87.87
2017-07-11T05:48:18.842Z,88.73
2017-07-11T05:48:59.451Z,89.61
2017-07-11T05:49:39.889Z,89.12
2017-07-11T05:50:20.401Z,89.99
2017-07-11T05:51:00.992Z,88.54
2017-07-11T05:51:41.503Z,89.7
2017-07-11T05:52:22.041Z,88.06
2017-07-11T05:53:02.515Z,86.22
2017-07-11T05:53:43.029Z,87.29
2017-07-11T05:54:23.534Z,89.12
2017-07-11T05:55:04.102Z,89.22
2017-07-11T05:55:44.563Z,87.96
2017-07-11T05:56:25.066Z,87.91
2017-07-11T05:57:05.575Z,88.06
2017-07-11T05:57:46.120Z,86.85
2017-07-11T05:58:26.554Z,87.81
2017-07-11T05:59:07.069Z,88.97
2017-07-11T05:59:47.559Z,89.36
2017-07-11T06:00:28.064Z,89.31
2017-07-11T06:01:08.544Z,90.12
2017-07-11T06:01:49.092Z,88.19
2017-07-11T06:02:29.599Z,88.81
2017-07-11T06:03:10.108Z,84.17
2017-07-11T06:03:50.570Z,83.92
2017-07-11T06:04:31.087Z,85.18
2017-07-11T06:05:11.606Z,86.19
2017-07-11T06:05:52.106Z,87.35
2017-07-11T06:06:32.622Z,83.25
2017-07-11T06:07:13.119Z,77.28
2017-07-11T06:07:53.706Z,81.73
2017-07-11T06:08:34.167Z,84.93
2017-07-11T06:09:14.716Z,86.23
2017-07-11T06:09:55.239Z,87.4
2017-07-11T06:10:35.708Z,87.49
2017-07-11T06:11:16.218Z,82.65
2017-07-11T06:11:56.711Z,84.97
2017-07-11T06:12:37.238Z,85.75
2017-07-11T06:13:17.779Z,82.01
2017-07-11T06:13:58.290Z,81.72
2017-07-11T06:14:41.312Z,84.82
2017-07-11T06:15:21.861Z,84.05
2017-07-11T06:16:02.354Z,82.3
2017-07-11T06:16:42.859Z,78.94
2017-07-11T06:17:23.515Z,83.22
2017-07-11T06:18:03.926Z,85.74
2017-07-11T06:18:44.406Z,86.61
2017-07-11T06:19:24.930Z,85.83
2017-07-11T06:20:05.427Z,87.87
2017-07-11T06:20:45.953Z,79.33
2017-07-11T06:21:26.450Z,86.22
2017-07-11T06:22:06.960Z,87.29
2017-07-11T06:22:47.497Z,84.77
2017-07-11T06:23:27.994Z,86.41
2017-07-11T06:24:08.460Z,87.29
2017-07-11T06:24:48.965Z,81.76
2017-07-11T06:25:29.466Z,84.19
2017-07-11T06:26:10.001Z,79.91
2017-07-11T06:26:50.484Z,82.53
2017-07-11T06:27:30.997Z,76.72
2017-07-11T06:28:11.517Z,78.91
2017-07-11T06:28:52.008Z,80.4
2017-07-11T06:29:32.502Z,85.6
2017-07-11T06:30:13.049Z,83.47
2017-07-11T06:30:53.508Z,77.22
2017-07-11T06:31:34.036Z,78.97
2017-07-11T06:32:14.511Z,79.25
2017-07-11T06:32:55.013Z,84.1
2017-07-11T06:33:35.499Z,84.78
2017-07-11T06:34:16.010Z,84.39
2017-07-11T06:34:56.548Z,86.04
2017-07-11T06:35:37.067Z,83.48
2017-07-11T06:36:17.539Z,82.51
2017-07-11T06:36:58.047Z,80.09
2017-07-11T06:37:38.549Z,82.9
2017-07-11T06:38:19.049Z,80.57
2017-07-11T06:38:59.516Z,81.68
2017-07-11T06:39:40.017Z,80.26
2017-07-11T06:40:20.548Z,82.4
2017-07-11T06:41:01.076Z,82.4
2017-07-11T06:41:41.588Z,83.13
2017-07-11T06:42:22.080Z,78.09
2017-07-11T06:43:02.631Z,77.22
2017-07-11T06:43:43.120Z,79.55
2017-07-11T06:44:23.650Z,79.16
2017-07-11T06:45:04.181Z,76.97
2017-07-11T06:45:44.703Z,78.91
2017-07-11T06:46:25.224Z,84.2
2017-07-11T06:47:05.707Z,85.85
2017-07-11T06:47:46.302Z,85.4
2017-07-11T06:48:26.815Z,85.27
2017-07-11T06:49:07.327Z,83.23
2017-07-11T06:49:47.948Z,83.52
2017-07-11T06:50:28.508Z,83.18
2017-07-11T06:51:08.889Z,83.86
2017-07-11T06:51:49.404Z,83.18
2017-07-11T06:52:29.917Z,85.9
2017-07-11T06:53:10.442Z,82.8
2017-07-11T06:53:50.957Z,80.96
2017-07-11T06:54:31.463Z,84.55
2017-07-11T06:55:12.032Z,88.71
2017-07-11T06:55:52.533Z,90.06
2017-07-11T06:56:33.050Z,89.39
2017-07-11T06:57:13.536Z,89.09
2017-07-11T06:57:54.074Z,87.98
2017-07-11T06:58:34.665Z,83.37
2017-07-11T06:59:15.148Z,84.34
2017-07-11T06:59:55.645Z,83.37
2017-07-11T07:00:36.168Z,83.47
2017-07-11T07:01:16.679Z,86.27
2017-07-11T07:01:57.212Z,82.4
2017-07-11T07:02:37.686Z,84.14
2017-07-11T07:03:18.191Z,82.94
2017-07-11T07:03:58.692Z,84
2017-07-11T07:04:39.196Z,83.42
2017-07-11T07:05:19.760Z,83.81
2017-07-11T07:06:00.262Z,83.17
2017-07-11T07:06:40.789Z,81.91
2017-07-11T07:07:21.309Z,79.55
2017-07-11T07:08:01.821Z,79.1
2017-07-11T07:08:42.428Z,79.68
2017-07-11T07:09:22.929Z,81.1
2017-07-11T07:10:03.463Z,79.64
2017-07-11T07:10:43.969Z,80.85
2017-07-11T07:11:24.458Z,79.43
2017-07-11T07:12:04.994Z,80.3
2017-07-11T07:12:45.506Z,77.11
2017-07-11T07:13:26.029Z,77.39
2017-07-11T07:14:06.528Z,75.84
2017-07-11T07:14:47.053Z,75.36
2017-07-11T07:15:27.572Z,81.57
2017-07-11T07:16:08.074Z,79.97
2017-07-11T07:16:48.581Z,82.4
2017-07-11T07:17:29.068Z,85.11
2017-07-11T07:18:09.583Z,84.43
2017-07-11T07:18:50.104Z,81.13
2017-07-11T07:19:30.555Z,83.37
2017-07-11T07:20:11.058Z,85.21
2017-07-11T07:20:51.536Z,83.65
2017-07-11T07:21:32.063Z,84.34
2017-07-11T07:22:12.554Z,85.5
2017-07-11T07:22:53.176Z,87.24
2017-07-11T07:23:33.712Z,84.43
2017-07-11T07:24:14.233Z,88.02
2017-07-11T07:24:54.729Z,88.31
2017-07-11T07:25:35.233Z,84.24
2017-07-11T07:26:15.723Z,83.27
2017-07-11T07:26:56.249Z,84.05
2017-07-11T07:27:36.720Z,85.02
2017-07-11T07:28:17.247Z,85.3
2017-07-11T07:28:57.783Z,85.5
2017-07-11T07:29:38.274Z,86.95
2017-07-11T07:30:18.771Z,78
2017-07-11T07:30:59.341Z,85.11
2017-07-11T07:31:39.917Z,85.27
2017-07-11T07:32:20.411Z,84.68
2017-07-11T07:33:00.940Z,85.17
2017-07-11T07:33:41.443Z,83.91
2017-07-11T07:34:21.948Z,84.1
2017-07-11T07:35:02.466Z,77.12
2017-07-11T07:35:42.956Z,79.49
2017-07-11T07:36:23.542Z,81.33
2017-07-11T07:37:04.110Z,80.26
2017-07-11T07:37:44.606Z,77.8
2017-07-11T07:38:25.099Z,80.65
2017-07-11T07:39:05.631Z,76.29
2017-07-11T07:39:46.122Z,79.58
2017-07-11T07:40:26.651Z,79.49
2017-07-11T07:41:07.160Z,82.55
2017-07-11T07:41:47.671Z,82.84
2017-07-11T07:42:28.160Z,80.75
2017-07-11T07:43:08.693Z,82.3
2017-07-11T07:43:49.126Z,77.11
2017-07-11T07:44:29.653Z,79.24
2017-07-11T07:45:10.217Z,74.49
2017-07-11T07:45:50.676Z,78.07
2017-07-11T07:46:31.170Z,74.39
2017-07-11T07:47:11.678Z,79.24
2017-07-11T07:47:52.184Z,85.06
2017-07-11T07:48:32.695Z,81.27
2017-07-11T07:49:13.190Z,83.22
2017-07-11T07:49:53.692Z,84.77
2017-07-11T07:50:34.180Z,78.23
2017-07-11T07:51:14.706Z,81.57
2017-07-11T07:51:55.192Z,74.58
2017-07-11T07:52:35.724Z,74
2017-07-11T07:53:16.236Z,81.85
2017-07-11T07:53:56.711Z,80.11
2017-07-11T07:54:37.243Z,77.62
2017-07-11T07:55:17.735Z,72.39
2017-07-11T07:55:58.259Z,77.04
2017-07-11T07:56:38.743Z,76.56
2017-07-11T07:57:19.294Z,77.53
2017-07-11T07:57:59.794Z,80.34
2017-07-11T07:58:40.285Z,81.7
2017-07-11T07:59:20.764Z,83.06
2017-07-11T08:00:01.499Z,80.48
2017-07-11T08:00:41.991Z,75.04
2017-07-11T08:01:22.491Z,79.96
2017-07-11T08:02:02.993Z,78.4
2017-07-11T08:02:43.498Z,77.04
2017-07-11T08:03:23.982Z,70.73
2017-07-11T08:04:04.484Z,75.98
2017-07-11T08:04:45.017Z,78.11
2017-07-11T08:05:25.533Z,79.47
2017-07-11T08:06:06.070Z,80.3
2017-07-11T08:06:46.541Z,76.14
2017-07-11T08:07:27.046Z,73.22
2017-07-11T08:08:07.550Z,74.74
2017-07-11T08:08:48.098Z,80.46
2017-07-11T08:09:28.584Z,78.85
2017-07-11T08:10:09.088Z,81.27
2017-07-11T08:10:49.591Z,81.08
2017-07-11T08:11:30.131Z,79.24
2017-07-11T08:12:10.590Z,79.49
2017-07-11T08:12:51.100Z,76.97
2017-07-11T08:13:31.629Z,79.39
2017-07-11T08:14:12.128Z,76.97
2017-07-11T08:14:52.610Z,74.9
2017-07-11T08:15:33.121Z,77.42
2017-07-11T08:16:13.568Z,80.32
2017-07-11T08:16:54.094Z,80.62
2017-07-11T08:17:34.641Z,82.45
2017-07-11T08:18:15.117Z,81.48
2017-07-11T08:18:55.635Z,77.22
2017-07-11T08:19:36.114Z,82.45
2017-07-11T08:20:16.638Z,75.67
2017-07-11T08:20:57.118Z,75.87
2017-07-11T08:21:37.639Z,80.8
2017-07-11T08:22:18.142Z,84.68
2017-07-11T08:22:58.674Z,79.06
2017-07-11T08:23:39.190Z,82.07
2017-07-11T08:24:19.675Z,79.12
2017-07-11T08:25:00.180Z,77.96
2017-07-11T08:25:40.735Z,84.2
2017-07-11T08:26:21.227Z,81.97
2017-07-11T08:27:01.698Z,86.23
2017-07-11T08:27:42.226Z,83.13
2017-07-11T08:28:22.723Z,81.77
2017-07-11T08:29:03.204Z,83.95
2017-07-11T08:29:43.736Z,80.07
2017-07-11T08:30:24.264Z,77.84
2017-07-11T08:31:04.782Z,77.94
2017-07-11T08:31:45.299Z,80.26
2017-07-11T08:32:25.835Z,79.58
2017-07-11T08:33:06.342Z,74.93
2017-07-11T08:33:46.885Z,78
2017-07-11T08:34:27.410Z,79.35
2017-07-11T08:35:07.889Z,75.87
2017-07-11T08:35:48.560Z,76.74
2017-07-11T08:36:29.064Z,79.25
2017-07-11T08:37:09.579Z,78.09
2017-07-11T08:37:50.108Z,78.58
2017-07-11T08:38:30.620Z,78.77
2017-07-11T08:39:11.130Z,75.09
2017-07-11T08:39:51.647Z,76.58
2017-07-11T08:40:32.141Z,78.19
2017-07-11T08:41:12.668Z,78.77
2017-07-11T08:41:53.191Z,76.97
2017-07-11T08:42:33.749Z,75.71
2017-07-11T08:43:14.238Z,76.58
2017-07-11T08:43:54.747Z,76.78
2017-07-11T08:44:35.277Z,77.84
2017-07-11T08:45:15.736Z,78.07
2017-07-11T08:45:56.231Z,78.94
2017-07-11T08:46:36.753Z,80.4
2017-07-11T08:47:17.265Z,81.95
2017-07-11T08:47:57.790Z,77.26
2017-07-11T08:48:38.292Z,79.43
2017-07-11T08:49:18.791Z,80.88